Time,TemperatureF,DewpointF,PressureIn,WindDirection,WindDirectionDegrees,WindSpeedMPH,WindSpeedGustMPH,Humidity,HourlyPrecipIn,Conditions,Clouds,dailyrainin,SoftwareType,DateUTC
2013-02-18 00:01:00,32.0,25.0,-100.00,SSW,213,13.0,15.0,77,0.00,,,-99.99,,2013-02-18 07:01:00,
2013-02-18 00:11:00,32.0,25.0,-100.00,SW,216,13.0,16.0,75,0.00,,,-99.99,,2013-02-18 07:11:00,
2013-02-18 00:21:00,32.0,25.0,-100.00,SSW,213,11.0,14.0,75,0.00,,,-99.99,,2013-02-18 07:21:00,
2013-02-18 00:31:00,32.0,25.0,-100.00,SSW,213,11.0,14.0,75,0.00,,,-99.99,,2013-02-18 07:31:00,
2013-02-18 00:42:00,32.0,24.0,-100.00,SW,217,13.0,16.0,72,0.00,,,-99.99,,2013-02-18 07:42:00,
2013-02-18 00:52:00,32.0,25.0,-100.00,SW,215,11.0,14.0,73,0.00,,,-99.99,,2013-02-18 07:52:00,
2013-02-18 01:01:00,32.0,25.0,-100.00,SW,215,11.0,14.0,73,0.00,,,-99.99,,2013-02-18 08:01:00,
2013-02-18 01:11:00,32.0,24.0,-100.00,SW,227,9.0,11.0,73,0.00,,,-99.99,,2013-02-18 08:11:00,
2013-02-18 01:21:00,32.0,24.0,-100.00,SW,227,9.0,11.0,73,0.00,,,-99.99,,2013-02-18 08:21:00,
2013-02-18 01:32:00,32.0,24.0,-100.00,SW,227,9.0,11.0,73,0.00,,,-99.99,,2013-02-18 08:32:00,
2013-02-18 01:41:00,31.0,24.0,-100.00,WSW,241,6.0,7.0,73,0.00,,,-99.99,,2013-02-18 08:41:00,
2013-02-18 01:52:00,31.0,24.0,-100.00,WSW,241,6.0,7.0,73,0.00,,,-99.99,,2013-02-18 08:52:00,
2013-02-18 02:02:00,31.0,24.0,-100.00,WSW,241,6.0,7.0,73,0.00,,,-99.99,,2013-02-18 09:02:00,
2013-02-18 02:11:00,29.0,23.0,-100.00,WNW,292,5.0,6.0,80,0.00,,,-99.99,,2013-02-18 09:11:00,
2013-02-18 02:22:00,28.0,23.0,-100.00,West,270,4.0,5.0,80,0.00,,,-99.99,,2013-02-18 09:22:00,
2013-02-18 02:31:00,28.0,23.0,-100.00,West,270,4.0,5.0,80,0.00,,,-99.99,,2013-02-18 09:31:00,
2013-02-18 02:41:00,28.0,23.0,-100.00,North,352,2.0,3.0,81,0.00,,,-99.99,,2013-02-18 09:41:00,
2013-02-18 02:52:00,28.0,23.0,-100.00,WNW,287,4.0,6.0,82,0.00,,,-99.99,,2013-02-18 09:52:00,
2013-02-18 03:01:00,28.0,23.0,-100.00,WNW,287,4.0,6.0,82,0.00,,,-99.99,,2013-02-18 10:01:00,
2013-02-18 03:11:00,29.0,23.0,-100.00,West,274,5.0,6.0,80,0.00,,,-99.99,,2013-02-18 10:11:00,
2013-02-18 03:21:00,29.0,24.0,-100.00,West,271,6.0,7.0,80,0.00,,,-99.99,,2013-02-18 10:21:00,
2013-02-18 03:31:00,29.0,24.0,-100.00,West,271,6.0,7.0,80,0.00,,,-99.99,,2013-02-18 10:31:00,
2013-02-18 03:41:00,29.0,23.0,-100.00,West,268,4.0,5.0,77,0.00,,,-99.99,,2013-02-18 10:41:00,
2013-02-18 03:52:00,28.0,22.0,-100.00,West,260,1.0,2.0,79,0.00,,,-99.99,,2013-02-18 10:52:00,
2013-02-18 04:01:00,28.0,22.0,-100.00,West,260,1.0,2.0,79,0.00,,,-99.99,,2013-02-18 11:01:00,
2013-02-18 04:11:00,28.0,23.0,-100.00,West,271,2.0,2.0,80,0.00,,,-99.99,,2013-02-18 11:11:00,
2013-02-18 04:21:00,27.0,22.0,-100.00,NNE,23,2.0,3.0,83,0.00,,,-99.99,,2013-02-18 11:21:00,
2013-02-18 04:31:00,27.0,22.0,-100.00,NNE,23,2.0,3.0,83,0.00,,,-99.99,,2013-02-18 11:31:00,
2013-02-18 04:42:00,27.0,23.0,-100.00,SE,145,2.0,3.0,83,0.00,,,-99.99,,2013-02-18 11:42:00,
2013-02-18 04:53:00,28.0,23.0,-100.00,SSE,168,3.0,3.0,82,0.00,,,-99.99,,2013-02-18 11:53:00,
2013-02-18 05:01:00,28.0,23.0,-100.00,SSE,168,3.0,3.0,82,0.00,,,-99.99,,2013-02-18 12:01:00,
2013-02-18 05:11:00,28.0,23.0,-100.00,SSE,168,3.0,3.0,82,0.00,,,-99.99,,2013-02-18 12:11:00,
2013-02-18 05:21:00,25.0,22.0,-100.00,SW,219,4.0,4.0,88,0.00,,,-99.99,,2013-02-18 12:21:00,
2013-02-18 05:31:00,25.0,22.0,-100.00,SW,219,4.0,4.0,88,0.00,,,-99.99,,2013-02-18 12:31:00,
2013-02-18 05:42:00,26.0,23.0,-100.00,South,186,2.0,3.0,88,0.00,,,-99.99,,2013-02-18 12:42:00,
2013-02-18 05:53:00,24.0,21.0,-100.00,SE,133,4.0,5.0,89,0.00,,,-99.99,,2013-02-18 12:53:00,
2013-02-18 06:02:00,24.0,21.0,-100.00,SE,133,4.0,5.0,89,0.00,,,-99.99,,2013-02-18 13:02:00,
2013-02-18 06:11:00,24.0,21.0,-100.00,SSE,154,6.0,7.0,87,0.00,,,-99.99,,2013-02-18 13:11:00,
2013-02-18 06:22:00,24.0,21.0,-100.00,SSE,154,6.0,7.0,87,0.00,,,-99.99,,2013-02-18 13:22:00,
2013-02-18 06:32:00,24.0,21.0,-100.00,SSE,154,6.0,7.0,87,0.00,,,-99.99,,2013-02-18 13:32:00,
2013-02-18 06:41:00,24.0,21.0,-100.00,SSE,154,6.0,7.0,87,0.00,,,-99.99,,2013-02-18 13:41:00,
2013-02-18 06:53:00,22.0,20.0,-100.00,ESE,120,5.0,7.0,93,0.00,,,-99.99,,2013-02-18 13:53:00,
2013-02-18 07:02:00,22.0,20.0,-100.00,ESE,120,5.0,7.0,93,0.00,,,-99.99,,2013-02-18 14:02:00,
2013-02-18 07:11:00,23.0,19.0,-100.00,SE,131,5.0,6.0,84,0.00,,,-99.99,,2013-02-18 14:11:00,
2013-02-18 07:22:00,22.0,19.0,-100.00,SE,126,5.0,7.0,86,0.00,,,-99.99,,2013-02-18 14:22:00,
2013-02-18 07:32:00,22.0,19.0,-100.00,SE,126,5.0,7.0,86,0.00,,,-99.99,,2013-02-18 14:32:00,
2013-02-18 07:41:00,22.0,19.0,-100.00,SE,128,4.0,6.0,87,0.00,,,-99.99,,2013-02-18 14:41:00,
2013-02-18 07:53:00,22.0,19.0,-100.00,SE,128,4.0,6.0,87,0.00,,,-99.99,,2013-02-18 14:53:00,
2013-02-18 08:01:00,22.0,19.0,-100.00,SE,128,4.0,6.0,87,0.00,,,-99.99,,2013-02-18 15:01:00,
2013-02-18 08:11:00,22.0,18.0,-100.00,SE,136,8.0,9.0,84,0.00,,,-99.99,,2013-02-18 15:11:00,
2013-02-18 08:22:00,23.0,19.0,-100.00,SE,136,6.0,7.0,84,0.00,,,-99.99,,2013-02-18 15:22:00,
2013-02-18 08:31:00,23.0,19.0,-100.00,SE,136,6.0,7.0,84,0.00,,,-99.99,,2013-02-18 15:31:00,
2013-02-18 08:41:00,23.0,19.0,-100.00,SE,133,9.0,12.0,83,0.00,,,-99.99,,2013-02-18 15:41:00,
2013-02-18 08:52:00,25.0,20.0,-100.00,SE,138,9.0,11.0,81,0.00,,,-99.99,,2013-02-18 15:52:00,
2013-02-18 09:01:00,25.0,20.0,-100.00,SE,138,9.0,11.0,81,0.00,,,-99.99,,2013-02-18 16:01:00,
2013-02-18 09:11:00,26.0,20.0,-100.00,SE,130,7.0,9.0,79,0.00,,,-99.99,,2013-02-18 16:11:00,
2013-02-18 09:21:00,28.0,21.0,-100.00,SE,130,7.0,11.0,76,0.00,,,-99.99,,2013-02-18 16:21:00,
2013-02-18 09:31:00,28.0,21.0,-100.00,SE,130,7.0,11.0,76,0.00,,,-99.99,,2013-02-18 16:31:00,
2013-02-18 09:42:00,30.0,21.0,-100.00,SSE,150,12.0,14.0,71,0.00,,,-99.99,,2013-02-18 16:42:00,
2013-02-18 09:52:00,31.0,21.0,-100.00,SSE,158,12.0,14.0,67,0.00,,,-99.99,,2013-02-18 16:52:00,
2013-02-18 10:02:00,31.0,21.0,-100.00,SSE,158,12.0,14.0,67,0.00,,,-99.99,,2013-02-18 17:02:00,
2013-02-18 10:11:00,32.0,21.0,-100.00,SSE,155,12.0,15.0,65,0.00,,,-99.99,,2013-02-18 17:11:00,
2013-02-18 10:21:00,33.0,20.0,-100.00,SSE,147,11.0,15.0,59,0.00,,,-99.99,,2013-02-18 17:21:00,
2013-02-18 10:31:00,33.0,20.0,-100.00,SSE,147,11.0,15.0,59,0.00,,,-99.99,,2013-02-18 17:31:00,
2013-02-18 10:42:00,33.0,20.0,-100.00,SSE,147,13.0,16.0,58,0.00,,,-99.99,,2013-02-18 17:42:00,
2013-02-18 10:52:00,34.0,20.0,-100.00,SSE,148,13.0,17.0,57,0.00,,,-99.99,,2013-02-18 17:52:00,
2013-02-18 11:01:00,34.0,20.0,-100.00,SSE,148,13.0,17.0,57,0.00,,,-99.99,,2013-02-18 18:01:00,
2013-02-18 11:11:00,35.0,21.0,-100.00,SE,138,14.0,18.0,58,0.00,,,-99.99,,2013-02-18 18:11:00,
2013-02-18 11:22:00,35.0,21.0,-100.00,SE,138,14.0,18.0,58,0.00,,,-99.99,,2013-02-18 18:22:00,
2013-02-18 11:32:00,35.0,21.0,-100.00,SE,138,14.0,18.0,58,0.00,,,-99.99,,2013-02-18 18:32:00,
2013-02-18 11:42:00,36.0,21.0,-100.00,SSE,158,9.0,13.0,54,0.00,,,-99.99,,2013-02-18 18:42:00,
2013-02-18 11:52:00,36.0,21.0,-100.00,SE,144,10.0,13.0,55,0.00,,,-99.99,,2013-02-18 18:52:00,
2013-02-18 12:02:00,36.0,21.0,-100.00,SE,144,10.0,13.0,55,0.00,,,-99.99,,2013-02-18 19:02:00,
2013-02-18 12:11:00,36.0,21.0,-100.00,SE,134,10.0,13.0,55,0.00,,,-99.99,,2013-02-18 19:11:00,
2013-02-18 12:21:00,36.0,21.0,-100.00,SE,134,10.0,13.0,55,0.00,,,-99.99,,2013-02-18 19:21:00,
2013-02-18 12:32:00,36.0,21.0,-100.00,SE,134,10.0,13.0,55,0.00,,,-99.99,,2013-02-18 19:32:00,
2013-02-18 12:42:00,36.0,24.0,-100.00,SE,140,10.0,14.0,59,0.00,,,-99.99,,2013-02-18 19:42:00,
2013-02-18 12:53:00,36.0,24.0,-100.00,SE,140,10.0,14.0,59,0.00,,,-99.99,,2013-02-18 19:53:00,
2013-02-18 13:01:00,36.0,24.0,-100.00,SE,140,10.0,14.0,59,0.00,,,-99.99,,2013-02-18 20:01:00,
2013-02-18 13:11:00,37.0,23.0,-100.00,SE,131,12.0,15.0,57,0.00,,,-99.99,,2013-02-18 20:11:00,
2013-02-18 13:22:00,37.0,23.0,-100.00,ESE,121,11.0,17.0,57,0.00,,,-99.99,,2013-02-18 20:22:00,
2013-02-18 13:32:00,37.0,23.0,-100.00,ESE,121,11.0,17.0,57,0.00,,,-99.99,,2013-02-18 20:32:00,
2013-02-18 13:41:00,37.0,23.0,-100.00,ESE,121,11.0,17.0,57,0.00,,,-99.99,,2013-02-18 20:41:00,
2013-02-18 13:53:00,37.0,22.0,-100.00,SE,138,15.0,19.0,53,0.00,,,-99.99,,2013-02-18 20:53:00,
2013-02-18 14:02:00,37.0,22.0,-100.00,SE,138,15.0,19.0,53,0.00,,,-99.99,,2013-02-18 21:02:00,
2013-02-18 14:11:00,37.0,23.0,-100.00,SE,143,15.0,19.0,55,0.00,,,-99.99,,2013-02-18 21:11:00,
2013-02-18 14:21:00,37.0,23.0,-100.00,SE,137,18.0,21.0,57,0.00,,,-99.99,,2013-02-18 21:21:00,
2013-02-18 14:31:00,37.0,23.0,-100.00,SE,137,18.0,21.0,57,0.00,,,-99.99,,2013-02-18 21:31:00,
2013-02-18 14:42:00,37.0,23.0,-100.00,SE,133,18.0,24.0,56,0.00,,,-99.99,,2013-02-18 21:42:00,
2013-02-18 14:52:00,36.0,22.0,-100.00,SE,131,16.0,21.0,58,0.00,,,-99.99,,2013-02-18 21:52:00,
2013-02-18 15:01:00,36.0,22.0,-100.00,SE,131,16.0,21.0,58,0.00,,,-99.99,,2013-02-18 22:01:00,
2013-02-18 15:11:00,37.0,22.0,-100.00,SE,141,17.0,21.0,55,0.00,,,-99.99,,2013-02-18 22:11:00,
2013-02-18 15:22:00,36.0,23.0,-100.00,SE,137,18.0,22.0,57,0.00,,,-99.99,,2013-02-18 22:22:00,
2013-02-18 15:32:00,36.0,23.0,-100.00,SE,137,18.0,22.0,57,0.00,,,-99.99,,2013-02-18 22:32:00,
2013-02-18 15:42:00,36.0,22.0,-100.00,SE,138,18.0,25.0,57,0.00,,,-99.99,,2013-02-18 22:42:00,
2013-02-18 15:53:00,36.0,23.0,-100.00,SE,134,18.0,23.0,59,0.00,,,-99.99,,2013-02-18 22:53:00,
2013-02-18 16:01:00,36.0,23.0,-100.00,SE,134,18.0,23.0,59,0.00,,,-99.99,,2013-02-18 23:01:00,
2013-02-18 16:11:00,36.0,23.0,-100.00,SE,134,18.0,23.0,59,0.00,,,-99.99,,2013-02-18 23:11:00,
2013-02-18 16:22:00,37.0,24.0,-100.00,SE,133,17.0,22.0,58,0.00,,,-99.99,,2013-02-18 23:22:00,
2013-02-18 16:31:00,37.0,24.0,-100.00,SE,133,17.0,22.0,58,0.00,,,-99.99,,2013-02-18 23:31:00,
2013-02-18 16:43:00,36.0,22.0,-100.00,SE,133,18.0,24.0,57,0.00,,,-99.99,,2013-02-18 23:43:00,
2013-02-18 17:01:00,36.0,22.0,-100.00,SE,133,18.0,24.0,57,0.00,,,-99.99,,2013-02-19 00:01:00,
2013-02-18 17:11:00,36.0,22.0,-100.00,SE,141,19.0,23.0,56,0.00,,,-99.99,,2013-02-19 00:11:00,
2013-02-18 17:22:00,35.0,22.0,-100.00,SE,140,17.0,20.0,59,0.00,,,-99.99,,2013-02-19 00:22:00,
2013-02-18 17:33:00,35.0,22.0,-100.00,SE,140,17.0,20.0,59,0.00,,,-99.99,,2013-02-19 00:33:00,
2013-02-18 17:43:00,34.0,22.0,-100.00,SE,138,17.0,24.0,62,0.00,,,-99.99,,2013-02-19 00:43:00,
2013-02-18 17:54:00,34.0,22.0,-100.00,SE,138,17.0,24.0,62,0.00,,,-99.99,,2013-02-19 00:54:00,
2013-02-18 18:02:00,34.0,22.0,-100.00,SE,138,17.0,24.0,62,0.00,,,-99.99,,2013-02-19 01:02:00,
2013-02-18 18:12:00,33.0,23.0,-100.00,SE,137,15.0,20.0,65,0.00,,,-99.99,,2013-02-19 01:12:00,
2013-02-18 18:23:00,33.0,22.0,-100.00,SE,138,16.0,21.0,64,0.00,,,-99.99,,2013-02-19 01:23:00,
2013-02-18 18:33:00,33.0,22.0,-100.00,SE,138,16.0,21.0,64,0.00,,,-99.99,,2013-02-19 01:33:00,
2013-02-18 18:43:00,32.0,22.0,-100.00,SSE,152,11.0,14.0,68,0.00,,,-99.99,,2013-02-19 01:43:00,
2013-02-18 18:55:00,31.0,22.0,-100.00,SSE,150,14.0,19.0,68,0.00,,,-99.99,,2013-02-19 01:55:00,
2013-02-18 19:02:00,31.0,22.0,-100.00,SSE,150,14.0,19.0,68,0.00,,,-99.99,,2013-02-19 02:02:00,
2013-02-18 19:12:00,31.0,22.0,-100.00,SSE,151,12.0,14.0,69,0.00,,,-99.99,,2013-02-19 02:12:00,
2013-02-18 19:22:00,31.0,22.0,-100.00,SSE,151,12.0,14.0,69,0.00,,,-99.99,,2013-02-19 02:22:00,
2013-02-18 19:32:00,31.0,22.0,-100.00,SSE,151,12.0,14.0,69,0.00,,,-99.99,,2013-02-19 02:32:00,
2013-02-18 19:42:00,31.0,20.0,-100.00,SE,141,11.0,14.0,65,0.00,,,-99.99,,2013-02-19 02:42:00,
2013-02-18 19:54:00,30.0,21.0,-100.00,SSE,148,10.0,12.0,69,0.00,,,-99.99,,2013-02-19 02:54:00,
2013-02-18 20:04:00,30.0,21.0,-100.00,SSE,148,10.0,12.0,69,0.00,,,-99.99,,2013-02-19 03:04:00,
2013-02-18 20:12:00,30.0,21.0,-100.00,SSE,148,10.0,12.0,69,0.00,,,-99.99,,2013-02-19 03:12:00,
2013-02-18 20:22:00,32.0,20.0,-100.00,SE,138,13.0,25.0,60,0.00,,,-99.99,,2013-02-19 03:22:00,
2013-02-18 20:32:00,32.0,20.0,-100.00,SE,138,13.0,25.0,60,0.00,,,-99.99,,2013-02-19 03:32:00,
2013-02-18 20:45:00,32.0,20.0,-100.00,SE,138,13.0,25.0,60,0.00,,,-99.99,,2013-02-19 03:45:00,
2013-02-18 20:54:00,30.0,20.0,-100.00,SE,140,9.0,12.0,67,0.00,,,-99.99,,2013-02-19 03:54:00,
2013-02-18 21:01:00,30.0,20.0,-100.00,SE,140,9.0,12.0,67,0.00,,,-99.99,,2013-02-19 04:01:00,
2013-02-18 21:13:00,30.0,20.0,-100.00,SE,145,9.0,11.0,66,0.00,,,-99.99,,2013-02-19 04:13:00,
2013-02-18 21:22:00,30.0,20.0,-100.00,SE,145,6.0,9.0,66,0.00,,,-99.99,,2013-02-19 04:22:00,
2013-02-18 21:32:00,30.0,20.0,-100.00,SE,145,6.0,9.0,66,0.00,,,-99.99,,2013-02-19 04:32:00,
2013-02-18 21:42:00,30.0,20.0,-100.00,SE,145,6.0,9.0,66,0.00,,,-99.99,,2013-02-19 04:42:00,
2013-02-18 21:54:00,30.0,18.0,-100.00,SE,131,6.0,8.0,62,0.00,,,-99.99,,2013-02-19 04:54:00,
2013-02-18 22:01:00,30.0,18.0,-100.00,SE,131,6.0,8.0,62,0.00,,,-99.99,,2013-02-19 05:01:00,
2013-02-18 22:12:00,30.0,17.0,-100.00,SE,136,4.0,7.0,57,0.00,,,-99.99,,2013-02-19 05:12:00,
2013-02-18 22:22:00,31.0,15.0,-100.00,East,79,4.0,7.0,52,0.00,,,-99.99,,2013-02-19 05:22:00,
2013-02-18 22:32:00,31.0,15.0,-100.00,East,79,4.0,7.0,52,0.00,,,-99.99,,2013-02-19 05:32:00,
2013-02-18 22:42:00,31.0,16.0,-100.00,East,83,3.0,5.0,54,0.00,,,-99.99,,2013-02-19 05:42:00,
2013-02-18 22:52:00,31.0,16.0,-100.00,East,83,3.0,5.0,54,0.00,,,-99.99,,2013-02-19 05:52:00,
2013-02-18 23:02:00,31.0,16.0,-100.00,East,83,3.0,5.0,54,0.00,,,-99.99,,2013-02-19 06:02:00,
2013-02-18 23:11:00,29.0,18.0,-100.00,NNE,23,1.0,2.0,63,0.00,,,-99.99,,2013-02-19 06:11:00,
2013-02-18 23:21:00,29.0,18.0,-100.00,NE,45,6.0,8.0,63,0.00,,,-99.99,,2013-02-19 06:21:00,
2013-02-18 23:32:00,29.0,18.0,-100.00,NE,45,6.0,8.0,63,0.00,,,-99.99,,2013-02-19 06:32:00,
2013-02-18 23:42:00,29.0,17.0,-100.00,ENE,72,5.0,7.0,62,0.00,,,-99.99,,2013-02-19 06:42:00,
2013-02-18 23:52:00,30.0,16.0,-100.00,East,85,4.0,8.0,55,0.00,,,-99.99,,2013-02-19 06:52:00,